KNQI/NQI METAR and TAF weather

Enter ICAO airport designator
Station Type Date Time Source
KNQI METAR 2021/04/17 02:56 UTC NOAA

KNQI 170256Z AUTO 08004KT 10SM BKN036 24/22 A2975 RMK AO2 SLP071 T02440222 53031 TSNO $


Station Type Date Time Source
KNQI Decoded METAR 2021/04/17 02:56 UTC NOAA

KINGSVILLE NAS, TX, United States (KNQI) 27-50N 097-81W 15M
Apr 16, 2021 - 10:56 PM EDT / 2021.04.17 0256 UTC
Wind: from the E (080 degrees) at 5 MPH (4 KT):0
Visibility: 10 mile(s):0
Sky conditions: mostly cloudy
Temperature: 75.9 F (24.4 C)
Dew Point: 72.0 F (22.2 C)
Relative Humidity: 87%
Pressure (altimeter): 29.75 in. Hg (1007 hPa)
Pressure tendency: 0.09 inches (3.1 hPa) higher than three hours ago
ob: KNQI 170256Z AUTO 08004KT 10SM BKN036 24/22 A2975 RMK AO2 SLP071 T02440222 53031 TSNO
cycle: 3

Station Type Date Time Source
KNQI TAF 2021/04/16 23:57 UTC NOAA

TAF KNQI 1623/1723 11010KT 9999 SCT015 BKN030 BKN200 612006 QNH2962INS
TEMPO 1623/1702 BKN025 OVC040
FM170230 07006KT 9999 VCTS BKN008 BKN015CB OVC030 60000 QNH2970INS
TEMPO 1703/1706 01012G18KT 3200 -TSRA BR SCT006 OVC015CB
FM170600 01010KT 9999 BKN015 OVC200 QNH2975INS
FM171200 01018G28KT 9999 VCTS SCT012 BKN025CB OVC008 520005 QNH2984INS
TEMPO 1712/1718 VRB20G30KT 1600 +TSRA BR SCT008 OVC015CB
FM171800 36015G25KT 9999 BKN030 QNH2990INS 510005 LAST NO
AMDS AFT 1623 NEXT 1807 T27/1623Z T15/1715Z FN20081

Example: see airport list